createdAt,value
2023-06-06T00:00:12.657Z,100.00
2023-06-06T00:02:42.344Z,100.00
2023-06-06T00:05:09.762Z,100.00
2023-06-06T00:07:36.363Z,100.00
2023-06-06T00:10:06.156Z,100.00
2023-06-06T00:12:33.365Z,100.00
2023-06-06T00:15:04.380Z,100.00
2023-06-06T00:17:31.415Z,100.00
2023-06-06T00:19:59.258Z,100.00
2023-06-06T00:22:26.008Z,100.00
2023-06-06T00:24:55.766Z,100.00
2023-06-06T00:27:22.364Z,100.00
2023-06-06T00:29:49.005Z,100.00
2023-06-06T00:32:15.731Z,100.00
2023-06-06T00:34:42.419Z,100.00
2023-06-06T00:37:09.029Z,100.00
2023-06-06T00:39:35.782Z,100.00
2023-06-06T00:42:02.431Z,100.00
2023-06-06T00:44:29.095Z,100.00
2023-06-06T00:46:55.938Z,100.00
2023-06-06T00:49:23.919Z,100.00
2023-06-06T00:51:50.932Z,100.00
2023-06-06T00:54:19.869Z,100.00
2023-06-06T00:56:48.673Z,100.00
2023-06-06T00:59:17.092Z,100.00
2023-06-06T01:01:44.335Z,100.00
2023-06-06T01:04:11.341Z,100.00
2023-06-06T01:06:38.456Z,100.00
2023-06-06T01:09:07.223Z,100.00
2023-06-06T01:12:11.015Z,100.00
2023-06-06T01:14:46.547Z,100.00
2023-06-06T01:17:14.366Z,100.00
2023-06-06T01:19:42.438Z,100.00
2023-06-06T01:22:14.261Z,100.00
2023-06-06T01:24:45.710Z,100.00
2023-06-06T01:27:12.329Z,100.00
2023-06-06T01:29:38.971Z,100.00
2023-06-06T01:32:37.313Z,100.00
2023-06-06T01:35:04.026Z,100.00
2023-06-06T01:38:00.860Z,100.00
2023-06-06T01:40:31.675Z,100.00
2023-06-06T01:42:58.403Z,100.00
2023-06-06T01:45:29.368Z,100.00
2023-06-06T01:47:56.355Z,100.00
2023-06-06T01:50:23.329Z,100.00
2023-06-06T01:52:53.294Z,100.00
2023-06-06T01:55:20.006Z,100.00
2023-06-06T01:57:46.633Z,100.00
2023-06-06T02:00:13.764Z,100.00
2023-06-06T02:02:41.148Z,100.00
2023-06-06T02:05:08.098Z,100.00
2023-06-06T02:07:36.009Z,100.00
2023-06-06T02:10:03.489Z,100.00
2023-06-06T02:12:30.166Z,100.00
2023-06-06T02:14:57.077Z,100.00
2023-06-06T02:17:26.533Z,100.00
2023-06-06T02:20:00.056Z,100.00
2023-06-06T02:22:26.824Z,100.00
2023-06-06T02:24:54.333Z,100.00
2023-06-06T02:27:22.484Z,100.00
2023-06-06T02:29:49.243Z,100.00
2023-06-06T02:32:16.225Z,100.00
2023-06-06T02:34:43.163Z,100.00
2023-06-06T02:37:09.819Z,100.00
2023-06-06T02:39:37.001Z,100.00
2023-06-06T02:42:07.788Z,100.00
2023-06-06T02:44:35.032Z,100.00
2023-06-06T02:47:01.728Z,100.00
2023-06-06T02:49:28.585Z,100.00
2023-06-06T02:51:56.840Z,100.00
2023-06-06T02:54:23.668Z,100.00
2023-06-06T02:56:50.798Z,100.00
2023-06-06T02:59:17.521Z,100.00
2023-06-06T03:01:45.871Z,100.00
2023-06-06T03:04:13.265Z,100.00
2023-06-06T03:06:43.052Z,100.00
2023-06-06T03:09:10.866Z,100.00
2023-06-06T03:11:37.670Z,100.00
2023-06-06T03:14:04.286Z,100.00
2023-06-06T03:16:31.705Z,100.00
2023-06-06T03:18:58.819Z,100.00
2023-06-06T03:21:25.560Z,100.00
2023-06-06T03:23:52.369Z,100.00
2023-06-06T03:26:20.715Z,100.00
2023-06-06T03:28:47.562Z,100.00
2023-06-06T03:31:15.258Z,100.00
2023-06-06T03:33:42.202Z,100.00
2023-06-06T03:36:09.083Z,100.00
2023-06-06T03:38:36.022Z,100.00
2023-06-06T03:41:03.866Z,100.00
2023-06-06T03:43:31.357Z,100.00
2023-06-06T03:45:58.345Z,100.00
2023-06-06T03:48:25.027Z,100.00
2023-06-06T03:50:51.677Z,100.00
2023-06-06T03:53:18.351Z,100.00
2023-06-06T03:55:45.841Z,100.00
2023-06-06T03:58:15.069Z,100.00
2023-06-06T04:00:41.969Z,100.00
2023-06-06T04:03:08.874Z,100.00
2023-06-06T04:05:36.130Z,100.00
2023-06-06T04:08:03.100Z,100.00
2023-06-06T04:10:29.770Z,100.00
2023-06-06T04:12:56.452Z,100.00
2023-06-06T04:15:23.368Z,100.00
2023-06-06T04:17:49.982Z,100.00
2023-06-06T04:20:16.613Z,100.00
2023-06-06T04:22:44.397Z,100.00
2023-06-06T04:25:13.726Z,100.00
2023-06-06T04:27:45.970Z,100.00
2023-06-06T04:30:23.526Z,100.00
2023-06-06T04:32:52.351Z,100.00
2023-06-06T04:35:19.842Z,100.00
2023-06-06T04:37:49.152Z,100.00
2023-06-06T04:40:16.723Z,93.99
2023-06-06T04:42:43.846Z,89.33
2023-06-06T04:45:11.441Z,86.63
2023-06-06T04:47:41.901Z,84.32
2023-06-06T04:50:09.896Z,82.86
2023-06-06T04:52:37.114Z,80.24
2023-06-06T04:55:04.761Z,81.89
2023-06-06T04:57:31.564Z,76.70
2023-06-06T04:59:58.264Z,76.48
2023-06-06T05:02:28.174Z,77.09
2023-06-06T05:04:57.361Z,75.14
2023-06-06T05:07:25.376Z,76.57
2023-06-06T05:09:56.377Z,75.88
2023-06-06T05:12:23.776Z,72.90
2023-06-06T05:14:51.439Z,80.56
2023-06-06T05:17:19.510Z,74.78
2023-06-06T05:19:46.862Z,70.16
2023-06-06T05:22:17.542Z,72.55
2023-06-06T05:24:44.897Z,69.68
2023-06-06T05:27:12.926Z,76.12
2023-06-06T05:29:39.537Z,79.82
2023-06-06T05:32:07.072Z,75.71
2023-06-06T05:34:34.334Z,79.10
2023-06-06T05:37:02.272Z,73.93
2023-06-06T05:39:29.716Z,65.75
2023-06-06T05:41:56.483Z,74.97
2023-06-06T05:44:24.045Z,70.54
2023-06-06T05:46:56.210Z,77.17
2023-06-06T05:49:24.223Z,77.77
2023-06-06T05:51:51.210Z,74.49
2023-06-06T05:54:18.376Z,74.38
2023-06-06T05:56:45.565Z,72.71
2023-06-06T05:59:12.244Z,75.55
2023-06-06T06:01:41.055Z,76.91
2023-06-06T06:04:09.554Z,75.09
2023-06-06T06:06:38.540Z,71.80
2023-06-06T06:09:06.412Z,68.84
2023-06-06T06:11:33.311Z,71.33
2023-06-06T06:14:00.021Z,61.19
2023-06-06T06:16:27.454Z,60.55
2023-06-06T06:18:54.165Z,72.25
2023-06-06T06:21:22.550Z,68.81
2023-06-06T06:23:52.964Z,70.45
2023-06-06T06:26:19.608Z,69.60
2023-06-06T06:28:46.334Z,63.82
2023-06-06T06:31:13.623Z,71.24
2023-06-06T06:33:40.505Z,65.76
2023-06-06T06:36:07.577Z,70.32
2023-06-06T06:38:34.355Z,68.58
2023-06-06T06:41:01.034Z,70.67
2023-06-06T06:43:27.624Z,67.86
2023-06-06T06:45:54.486Z,67.63
2023-06-06T06:48:21.129Z,59.78
2023-06-06T06:50:47.745Z,70.86
2023-06-06T06:53:14.769Z,63.46
2023-06-06T06:55:42.436Z,68.98
2023-06-06T06:58:09.335Z,66.70
2023-06-06T07:00:36.066Z,69.76
2023-06-06T07:03:06.328Z,63.57
2023-06-06T07:05:33.800Z,69.31
2023-06-06T07:08:01.193Z,72.86
2023-06-06T07:10:30.243Z,67.86
2023-06-06T07:12:57.460Z,65.97
2023-06-06T07:15:25.478Z,60.59
2023-06-06T07:17:52.286Z,59.05
2023-06-06T07:20:22.891Z,60.88
2023-06-06T07:22:51.710Z,61.00
2023-06-06T07:25:18.355Z,68.77
2023-06-06T07:27:44.980Z,69.51
2023-06-06T07:30:15.546Z,67.82
2023-06-06T07:32:48.269Z,67.15
2023-06-06T07:35:17.701Z,65.52
2023-06-06T07:37:44.423Z,67.23
2023-06-06T07:40:12.741Z,67.72
2023-06-06T07:42:42.683Z,66.04
2023-06-06T07:45:10.275Z,66.25
2023-06-06T07:50:04.357Z,68.95
2023-06-06T07:52:34.515Z,67.62
2023-06-06T07:55:02.132Z,68.77
2023-06-06T07:57:29.043Z,66.87
2023-06-06T07:59:55.797Z,68.11
2023-06-06T08:02:22.716Z,64.98
2023-06-06T08:04:49.409Z,65.57
2023-06-06T08:07:16.578Z,63.13
2023-06-06T08:09:44.420Z,65.81
2023-06-06T08:12:11.927Z,61.85
2023-06-06T08:14:39.405Z,61.59
2023-06-06T08:17:06.978Z,61.16
2023-06-06T08:19:34.066Z,55.13
2023-06-06T08:22:02.880Z,56.37
2023-06-06T08:24:30.236Z,57.04
2023-06-06T08:26:57.833Z,56.25
2023-06-06T08:29:24.475Z,58.44
2023-06-06T08:31:51.970Z,58.42
2023-06-06T08:34:18.704Z,49.15
2023-06-06T08:36:45.576Z,56.47
2023-06-06T08:39:12.304Z,55.28
2023-06-06T08:41:49.256Z,45.53
2023-06-06T08:44:15.832Z,56.89
2023-06-06T08:46:43.644Z,58.50
2023-06-06T08:49:11.613Z,50.44
2023-06-06T08:51:38.376Z,55.37
2023-06-06T08:54:05.872Z,54.88
2023-06-06T08:56:32.469Z,44.73
2023-06-06T08:58:59.558Z,45.93
2023-06-06T09:01:27.503Z,44.72
2023-06-06T09:03:54.692Z,50.42
2023-06-06T09:06:22.202Z,55.22
2023-06-06T09:08:51.771Z,42.97
2023-06-06T09:11:19.048Z,49.54
2023-06-06T09:13:46.628Z,53.42
2023-06-06T09:16:15.533Z,42.04
2023-06-06T09:18:42.853Z,50.07
2023-06-06T09:21:10.013Z,43.33
2023-06-06T09:23:37.272Z,48.48
2023-06-06T09:26:04.262Z,52.93
2023-06-06T09:28:41.544Z,45.69
2023-06-06T09:31:27.525Z,47.66
2023-06-06T09:33:55.888Z,51.70
2023-06-06T09:36:24.152Z,51.71
2023-06-06T09:38:55.153Z,52.45
2023-06-06T09:41:22.733Z,56.39
2023-06-06T09:43:49.615Z,54.96
2023-06-06T09:46:18.419Z,54.73
2023-06-06T09:48:59.608Z,54.38
2023-06-06T09:51:26.432Z,53.64
2023-06-06T09:53:53.514Z,54.85
2023-06-06T09:56:24.469Z,56.22
2023-06-06T09:58:57.981Z,54.42
2023-06-06T10:01:34.185Z,55.13
2023-06-06T10:04:01.796Z,57.32
2023-06-06T10:06:35.193Z,54.29
2023-06-06T10:09:08.392Z,55.08
2023-06-06T10:11:36.144Z,54.12
2023-06-06T10:14:04.629Z,52.92
2023-06-06T10:16:32.678Z,54.07
2023-06-06T10:18:59.887Z,49.34
2023-06-06T10:21:28.464Z,52.38
2023-06-06T10:23:56.027Z,53.35
2023-06-06T10:26:27.991Z,50.80
2023-06-06T10:29:04.923Z,53.87
2023-06-06T10:31:41.913Z,49.65
2023-06-06T10:34:14.323Z,54.22
2023-06-06T10:36:44.959Z,51.58
2023-06-06T10:39:32.920Z,50.96
2023-06-06T10:42:08.221Z,51.97
2023-06-06T10:44:38.838Z,53.49
2023-06-06T10:47:32.375Z,52.15
2023-06-06T10:50:17.060Z,51.95
2023-06-06T10:52:51.799Z,52.95
2023-06-06T10:55:45.289Z,49.87
2023-06-06T10:58:40.779Z,50.02
2023-06-06T11:01:07.871Z,48.59
2023-06-06T11:03:37.078Z,48.28
2023-06-06T11:06:15.819Z,49.34
2023-06-06T11:08:46.682Z,50.94
2023-06-06T11:11:30.513Z,48.26
2023-06-06T11:13:58.312Z,49.53
2023-06-06T11:17:01.371Z,47.02
2023-06-06T11:19:32.429Z,51.68
2023-06-06T11:22:00.460Z,49.60
2023-06-06T11:24:33.809Z,50.68
2023-06-06T11:27:01.171Z,51.81
2023-06-06T11:29:28.412Z,49.95
2023-06-06T11:31:55.042Z,48.90
2023-06-06T11:34:25.465Z,50.70
2023-06-06T11:36:53.022Z,50.99
2023-06-06T11:39:21.962Z,51.29
2023-06-06T11:41:51.114Z,51.56
2023-06-06T11:44:19.122Z,50.33
2023-06-06T11:46:46.338Z,50.61
2023-06-06T11:49:12.993Z,52.03
2023-06-06T11:51:39.619Z,54.11
2023-06-06T11:54:12.921Z,53.33
2023-06-06T11:56:40.812Z,54.39
2023-06-06T11:59:09.714Z,54.69
2023-06-06T12:01:36.777Z,54.67
2023-06-06T12:04:07.422Z,52.31
2023-06-06T12:06:34.670Z,53.43
2023-06-06T12:09:02.060Z,52.80
2023-06-06T12:11:31.114Z,54.50
2023-06-06T12:13:58.483Z,53.78
2023-06-06T12:16:28.513Z,53.24
2023-06-06T12:18:58.538Z,54.71
2023-06-06T12:21:25.165Z,54.31
2023-06-06T12:23:52.022Z,53.02
2023-06-06T12:26:19.691Z,51.47
2023-06-06T12:28:59.428Z,50.77
2023-06-06T12:31:35.590Z,51.52
2023-06-06T12:34:03.199Z,51.97
2023-06-06T12:36:29.839Z,50.35
2023-06-06T12:39:04.747Z,49.93
2023-06-06T12:41:42.282Z,50.22
2023-06-06T12:44:13.656Z,51.98
2023-06-06T12:46:41.624Z,53.58
2023-06-06T12:49:08.497Z,49.93
2023-06-06T12:51:40.685Z,50.35
2023-06-06T12:54:07.560Z,52.63
2023-06-06T12:56:34.152Z,52.63
2023-06-06T12:59:01.437Z,53.41
2023-06-06T13:01:29.637Z,53.30
2023-06-06T13:03:56.386Z,50.72
2023-06-06T13:06:23.308Z,51.13
2023-06-06T13:08:50.079Z,53.01
2023-06-06T13:11:16.732Z,52.69
2023-06-06T13:13:43.374Z,51.34
2023-06-06T13:16:10.094Z,52.73
2023-06-06T13:18:38.676Z,54.35
2023-06-06T13:21:05.432Z,54.82
2023-06-06T13:23:34.852Z,54.33
2023-06-06T13:26:01.671Z,55.04
2023-06-06T13:28:28.272Z,53.80
2023-06-06T13:30:54.962Z,53.64
2023-06-06T13:33:21.816Z,54.55
2023-06-06T13:35:49.967Z,52.52
2023-06-06T13:38:18.092Z,55.60
2023-06-06T13:40:44.775Z,56.57
2023-06-06T13:43:13.085Z,57.21
2023-06-06T13:45:41.904Z,56.46
2023-06-06T13:48:08.867Z,55.38
2023-06-06T13:50:36.330Z,56.04
2023-06-06T13:53:04.701Z,55.94
2023-06-06T13:55:32.776Z,55.56
2023-06-06T13:58:04.161Z,55.65
2023-06-06T14:00:35.548Z,56.39
2023-06-06T14:03:02.460Z,55.47
2023-06-06T14:05:29.779Z,55.15
2023-06-06T14:07:56.672Z,55.63
2023-06-06T14:10:23.348Z,56.51
2023-06-06T14:12:50.130Z,56.97
2023-06-06T14:15:17.250Z,58.00
2023-06-06T14:17:43.948Z,56.17
2023-06-06T14:20:13.279Z,55.76
2023-06-06T14:22:44.336Z,55.78
2023-06-06T14:25:11.415Z,55.60
2023-06-06T14:27:39.377Z,56.25
2023-06-06T14:30:07.764Z,55.32
2023-06-06T14:32:35.932Z,55.63
2023-06-06T14:35:05.085Z,55.75
2023-06-06T14:37:31.928Z,56.52
2023-06-06T14:40:00.055Z,57.30
2023-06-06T14:42:27.530Z,58.46
2023-06-06T14:44:56.724Z,63.79
2023-06-06T14:47:23.883Z,67.59
2023-06-06T14:49:50.716Z,69.70
2023-06-06T14:52:17.648Z,71.47
2023-06-06T14:54:44.623Z,70.80
2023-06-06T14:57:12.337Z,73.38
2023-06-06T14:59:40.048Z,75.20
2023-06-06T15:02:07.461Z,74.56
2023-06-06T15:04:36.220Z,77.64
2023-06-06T15:07:05.196Z,82.52
2023-06-06T15:09:32.711Z,88.44
2023-06-06T15:11:59.752Z,91.70
2023-06-06T15:14:27.129Z,97.91
2023-06-06T15:16:58.271Z,98.77
2023-06-06T15:19:25.027Z,100.00
2023-06-06T15:21:51.922Z,100.00
2023-06-06T15:24:25.316Z,100.00
2023-06-06T15:26:58.861Z,100.00
2023-06-06T15:29:25.864Z,100.00
2023-06-06T15:31:54.982Z,100.00
2023-06-06T15:34:22.328Z,100.00
2023-06-06T15:36:49.360Z,100.00
2023-06-06T15:39:16.066Z,100.00
2023-06-06T15:41:42.693Z,100.00
2023-06-06T15:44:11.417Z,100.00
2023-06-06T15:46:40.865Z,100.00
2023-06-06T15:49:08.343Z,100.00
2023-06-06T15:51:39.303Z,100.00
2023-06-06T15:54:06.822Z,100.00
2023-06-06T15:56:33.499Z,100.00
2023-06-06T15:59:01.226Z,100.00
2023-06-06T16:01:28.750Z,100.00
2023-06-06T16:03:55.897Z,100.00
2023-06-06T16:06:25.630Z,100.00
2023-06-06T16:08:52.896Z,100.00
2023-06-06T16:11:20.840Z,100.00
2023-06-06T16:13:47.425Z,100.00
2023-06-06T16:16:15.088Z,100.00
2023-06-06T16:18:41.953Z,100.00
2023-06-06T16:21:09.602Z,100.00
2023-06-06T16:23:36.899Z,100.00
2023-06-06T16:26:03.593Z,100.00
2023-06-06T16:28:30.187Z,100.00
2023-06-06T16:30:57.128Z,100.00
2023-06-06T16:33:23.747Z,100.00
2023-06-06T16:35:50.379Z,100.00
2023-06-06T16:38:16.947Z,100.00
2023-06-06T16:40:43.557Z,100.00
2023-06-06T16:43:10.238Z,100.00
2023-06-06T16:45:37.050Z,98.17
2023-06-06T16:48:07.154Z,96.36
2023-06-06T16:50:34.086Z,92.38
2023-06-06T16:53:00.745Z,98.72
2023-06-06T16:55:27.482Z,95.74
2023-06-06T16:57:54.221Z,96.95
2023-06-06T17:00:21.965Z,98.81
2023-06-06T17:02:49.556Z,97.98
2023-06-06T17:05:17.180Z,97.94
2023-06-06T17:07:43.776Z,99.02
2023-06-06T17:10:13.800Z,98.16
2023-06-06T17:12:40.495Z,97.87
2023-06-06T17:15:07.955Z,98.66
2023-06-06T17:17:34.564Z,97.64
2023-06-06T17:20:01.456Z,97.56
2023-06-06T17:22:28.300Z,95.46
2023-06-06T17:24:57.657Z,91.17
2023-06-06T17:27:24.348Z,90.41
2023-06-06T17:29:50.986Z,87.52
2023-06-06T17:32:17.702Z,87.06
2023-06-06T17:34:44.684Z,86.17
2023-06-06T17:37:11.417Z,87.96
2023-06-06T17:39:38.035Z,89.61
2023-06-06T17:42:05.207Z,91.34
2023-06-06T17:44:31.946Z,89.80
2023-06-06T17:46:58.587Z,91.44
2023-06-06T17:49:25.298Z,92.66
2023-06-06T17:51:51.912Z,90.46
2023-06-06T17:54:18.535Z,87.85
2023-06-06T17:56:45.082Z,88.21
2023-06-06T17:59:12.319Z,87.67
2023-06-06T18:01:38.900Z,87.59
2023-06-06T18:04:06.222Z,86.70
2023-06-06T18:06:33.125Z,87.40
2023-06-06T18:09:00.037Z,88.10
2023-06-06T18:11:27.055Z,88.73
2023-06-06T18:13:53.905Z,88.91
2023-06-06T18:16:20.570Z,90.75
2023-06-06T18:18:48.961Z,92.78
2023-06-06T18:21:17.026Z,95.49
2023-06-06T18:23:43.780Z,95.07
2023-06-06T18:26:11.737Z,94.22
2023-06-06T18:28:38.314Z,95.11
2023-06-06T18:31:04.990Z,95.35
2023-06-06T18:33:31.824Z,97.50
2023-06-06T18:35:58.530Z,99.62
2023-06-06T18:38:25.218Z,98.19
2023-06-06T18:40:51.887Z,98.47
2023-06-06T18:43:19.127Z,97.34
2023-06-06T18:45:49.382Z,96.32
2023-06-06T18:48:16.586Z,100.00
2023-06-06T18:50:46.751Z,100.00
2023-06-06T18:53:13.474Z,100.00
2023-06-06T18:55:41.516Z,100.00
2023-06-06T18:58:08.530Z,100.00
2023-06-06T19:00:35.168Z,100.00
2023-06-06T19:03:01.940Z,100.00
2023-06-06T19:05:28.604Z,100.00
2023-06-06T19:07:55.734Z,100.00
2023-06-06T19:10:22.604Z,100.00
2023-06-06T19:12:49.851Z,100.00
2023-06-06T19:15:16.781Z,100.00
2023-06-06T19:17:43.620Z,100.00
2023-06-06T19:20:11.224Z,100.00
2023-06-06T19:22:37.905Z,100.00
2023-06-06T19:25:05.044Z,100.00
2023-06-06T19:27:31.785Z,100.00
2023-06-06T19:29:58.464Z,100.00
2023-06-06T19:32:25.288Z,99.73
2023-06-06T19:34:52.379Z,99.68
2023-06-06T19:37:19.026Z,99.71
2023-06-06T19:39:48.230Z,100.00
2023-06-06T19:42:15.764Z,100.00
2023-06-06T19:44:42.545Z,100.00
2023-06-06T19:47:09.204Z,100.00
2023-06-06T19:49:36.097Z,100.00
2023-06-06T19:52:03.678Z,100.00
2023-06-06T19:54:30.365Z,100.00
2023-06-06T19:56:57.154Z,100.00
2023-06-06T19:59:23.795Z,100.00
2023-06-06T20:01:50.679Z,100.00
2023-06-06T20:04:17.470Z,100.00
2023-06-06T20:06:44.301Z,100.00
2023-06-06T20:09:10.923Z,100.00
2023-06-06T20:11:37.504Z,100.00
2023-06-06T20:14:04.217Z,100.00
2023-06-06T20:16:30.885Z,100.00
2023-06-06T20:18:57.572Z,100.00
2023-06-06T20:21:24.316Z,100.00
2023-06-06T20:23:52.014Z,100.00
2023-06-06T20:26:18.759Z,100.00
2023-06-06T20:28:45.463Z,100.00
2023-06-06T20:31:14.531Z,100.00
2023-06-06T20:33:42.060Z,100.00
2023-06-06T20:36:09.341Z,100.00
2023-06-06T20:38:35.994Z,100.00
2023-06-06T20:41:02.847Z,100.00
2023-06-06T20:43:29.714Z,100.00
2023-06-06T20:45:56.488Z,100.00
2023-06-06T20:48:23.303Z,100.00
2023-06-06T20:50:50.562Z,100.00
2023-06-06T20:53:17.308Z,100.00
2023-06-06T20:55:44.135Z,100.00
2023-06-06T20:58:17.898Z,100.00
2023-06-06T21:00:46.624Z,100.00
2023-06-06T21:03:14.525Z,100.00
2023-06-06T21:05:41.421Z,100.00
2023-06-06T21:08:09.131Z,100.00
2023-06-06T21:10:35.857Z,100.00
2023-06-06T21:13:02.754Z,100.00
2023-06-06T21:15:29.586Z,100.00
2023-06-06T21:17:57.412Z,100.00
2023-06-06T21:20:24.175Z,100.00
2023-06-06T21:22:51.129Z,100.00
2023-06-06T21:25:17.810Z,100.00
2023-06-06T21:27:44.477Z,100.00
2023-06-06T21:30:11.579Z,100.00
2023-06-06T21:32:42.191Z,100.00
2023-06-06T21:35:09.160Z,100.00
2023-06-06T21:37:35.839Z,100.00
2023-06-06T21:40:02.570Z,100.00
2023-06-06T21:42:29.440Z,100.00
2023-06-06T21:44:58.020Z,100.00
2023-06-06T21:47:24.808Z,100.00
2023-06-06T21:49:52.751Z,100.00
2023-06-06T21:52:19.361Z,100.00
2023-06-06T21:54:46.038Z,100.00
2023-06-06T21:57:12.663Z,100.00
2023-06-06T21:59:39.327Z,100.00
2023-06-06T22:02:06.156Z,100.00
2023-06-06T22:04:32.746Z,100.00
2023-06-06T22:07:03.864Z,100.00
2023-06-06T22:09:31.534Z,100.00
2023-06-06T22:11:58.128Z,100.00
2023-06-06T22:14:24.698Z,100.00
2023-06-06T22:16:51.376Z,100.00
2023-06-06T22:19:19.092Z,100.00
2023-06-06T22:21:45.769Z,100.00
2023-06-06T22:24:12.396Z,100.00
2023-06-06T22:26:39.062Z,100.00
2023-06-06T22:29:07.230Z,100.00
2023-06-06T22:31:34.402Z,100.00
2023-06-06T22:34:01.149Z,100.00
2023-06-06T22:36:27.781Z,100.00
2023-06-06T22:38:54.431Z,100.00
2023-06-06T22:41:21.086Z,100.00
2023-06-06T22:43:47.779Z,100.00
2023-06-06T22:46:14.423Z,100.00
2023-06-06T22:48:41.075Z,100.00
2023-06-06T22:51:08.190Z,100.00
2023-06-06T22:53:34.866Z,100.00
2023-06-06T22:56:01.516Z,100.00
2023-06-06T23:04:59.541Z,100.00
2023-06-06T23:07:26.143Z,100.00
2023-06-06T23:09:53.038Z,100.00
2023-06-06T23:12:19.605Z,100.00
2023-06-06T23:14:46.210Z,100.00
2023-06-06T23:17:12.992Z,100.00
2023-06-06T23:19:39.749Z,100.00
2023-06-06T23:22:06.570Z,100.00
2023-06-06T23:24:33.267Z,100.00
2023-06-06T23:26:59.908Z,100.00
2023-06-06T23:29:26.481Z,100.00
2023-06-06T23:31:53.260Z,100.00
2023-06-06T23:34:19.999Z,100.00
2023-06-06T23:36:48.921Z,100.00
2023-06-06T23:39:15.652Z,100.00
2023-06-06T23:41:42.514Z,100.00
2023-06-06T23:44:09.078Z,100.00
2023-06-06T23:46:35.725Z,100.00
2023-06-06T23:49:02.407Z,100.00
2023-06-06T23:51:29.483Z,100.00
2023-06-06T23:53:56.195Z,100.00
2023-06-06T23:56:22.877Z,100.00
2023-06-06T23:58:49.575Z,100.00
